Time;durP1;ratioP1;P1;durP2;ratioP2;P2;SDS_P1;SDS_P2;PMS_P1;PMS_P2;Temp;Humidity;BMP_temperature;BMP_pressure;BME280_temperature;BME280_humidity;BME280_pressure;Samples;Min_cycle;Max_cycle;Signal;HPM_P1;HPM_P2
2023/08/03 00:00:07;;;;;;;5.60;2.00;;;;;;;18.35;74.43;98573.66;682996;29;1159;-78
2023/08/03 00:00:32;;;;;;;5.85;2.10;;;;;;;18.41;74.62;98596.31;681033;29;1835;-77
2023/08/03 00:00:53;;;;;;;6.50;2.30;;;;;;;18.41;74.54;98585.75;682905;29;800;-77
2023/08/03 00:01:13;;;;;;;8.00;2.33;;;;;;;18.39;74.46;98577.03;683780;28;1104;-78
2023/08/03 00:01:34;;;;;;;7.10;2.22;;;;;;;18.43;74.36;98562.81;684474;28;1814;-78
2023/08/03 00:02:00;;;;;;;5.80;1.90;;;;;;;18.45;74.26;98576.78;688320;28;1330;-77
2023/08/03 00:02:21;;;;;;;4.55;1.80;;;;;;;18.47;74.09;98567.03;689511;28;1328;-78
2023/08/03 00:02:41;;;;;;;4.60;2.00;;;;;;;18.53;73.95;98584.41;685326;28;1946;-77
2023/08/03 00:03:02;;;;;;;4.15;2.10;;;;;;;18.48;73.90;98564.34;685517;28;892;-77
2023/08/03 00:03:23;;;;;;;4.97;2.20;;;;;;;18.51;73.89;98576.56;684439;28;1155;-78
2023/08/03 00:03:44;;;;;;;7.00;2.10;;;;;;;18.55;73.91;98580.78;681312;29;1561;-77
2023/08/03 00:04:04;;;;;;;6.43;2.00;;;;;;;18.50;73.65;98569.53;682062;29;1215;-77
2023/08/03 00:04:25;;;;;;;5.78;2.08;;;;;;;18.56;73.75;98573.72;680554;29;1157;-77
2023/08/03 00:04:46;;;;;;;6.80;2.30;;;;;;;18.55;73.71;98569.38;680122;29;1110;-77
2023/08/03 00:05:07;;;;;;;7.83;2.40;;;;;;;18.59;73.67;98563.91;679822;29;1427;-76
2023/08/03 00:05:27;;;;;;;8.05;2.50;;;;;;;18.55;73.66;98562.28;682815;28;1267;-78
2023/08/03 00:05:48;;;;;;;5.67;2.23;;;;;;;18.49;73.59;98567.81;682298;29;1080;-78
2023/08/03 00:06:09;;;;;;;5.45;2.20;;;;;;;18.56;73.75;98582.50;682766;29;1651;-76
2023/08/03 00:06:30;;;;;;;5.90;2.20;;;;;;;18.52;73.32;98573.00;680018;29;982;-77
2023/08/03 00:06:50;;;;;;;5.97;2.40;;;;;;;18.48;73.90;98560.81;682443;29;1433;-77
2023/08/03 00:07:11;;;;;;;6.78;2.22;;;;;;;18.56;73.84;98568.44;683753;28;1989;-77
2023/08/03 00:07:32;;;;;;;5.82;2.10;;;;;;;18.49;73.79;98567.81;682528;28;1328;-78
2023/08/03 00:07:53;;;;;;;6.15;2.17;;;;;;;18.54;73.56;98565.84;680325;29;838;-79
2023/08/03 00:08:13;;;;;;;6.80;2.25;;;;;;;18.53;73.79;98558.00;685194;28;1886;-76
2023/08/03 00:08:34;;;;;;;6.95;2.20;;;;;;;18.52;73.50;98559.78;687883;28;1102;-79
2023/08/03 00:08:55;;;;;;;6.20;2.00;;;;;;;18.50;73.51;98559.84;685903;28;1061;-78
2023/08/03 00:09:15;;;;;;;4.53;2.10;;;;;;;18.57;73.56;98555.16;684843;28;1457;-77
2023/08/03 00:09:36;;;;;;;4.93;2.30;;;;;;;18.58;73.37;98562.19;679237;29;1246;-78
2023/08/03 00:09:57;;;;;;;5.03;2.17;;;;;;;18.65;73.35;98573.34;686513;28;1174;-78
2023/08/03 00:10:19;;;;;;;5.28;2.13;;;;;;;18.57;73.38;98551.69;680493;29;1667;-77
2023/08/03 00:10:40;;;;;;;5.00;2.00;;;;;;;18.59;73.45;98563.03;685609;28;1099;-78
2023/08/03 00:11:02;;;;;;;4.72;2.00;;;;;;;18.60;73.37;98564.75;680788;28;1926;-77
2023/08/03 00:11:22;;;;;;;4.65;1.92;;;;;;;18.53;73.35;98552.72;680152;29;1037;-77
2023/08/03 00:11:43;;;;;;;3.63;1.90;;;;;;;18.59;73.37;98558.63;685332;28;1467;-77
2023/08/03 00:12:04;;;;;;;3.92;1.98;;;;;;;18.59;73.37;98550.69;688947;28;1064;-78
2023/08/03 00:12:25;;;;;;;4.13;1.95;;;;;;;18.57;73.31;98551.69;687224;28;1020;-78
2023/08/03 00:12:47;;;;;;;4.45;1.90;;;;;;;18.53;73.19;98553.59;687930;28;1496;-78
2023/08/03 00:13:07;;;;;;;4.60;2.10;;;;;;;18.42;73.61;98555.78;688064;28;1051;-77
2023/08/03 00:13:28;;;;;;;4.27;2.10;;;;;;;18.41;73.76;98554.06;682628;29;1341;-77
2023/08/03 00:13:49;;;;;;;5.20;2.10;;;;;;;18.41;73.78;98559.34;684506;28;1173;-76
2023/08/03 00:14:10;;;;;;;6.35;2.20;;;;;;;18.36;73.80;98546.31;685077;28;983;-77
2023/08/03 00:14:30;;;;;;;8.07;2.33;;;;;;;18.36;73.91;98554.25;682511;29;1541;-77
2023/08/03 00:14:51;;;;;;;6.78;2.20;;;;;;;18.38;74.03;98546.28;684247;28;2009;-77
2023/08/03 00:15:13;;;;;;;6.43;2.10;;;;;;;18.42;73.75;98553.13;685374;28;1163;-77
2023/08/03 00:15:34;;;;;;;5.15;1.83;;;;;;;18.41;73.74;98556.69;682272;29;1044;-79
2023/08/03 00:15:55;;;;;;;6.38;2.00;;;;;;;18.56;73.41;98564.00;682584;29;1240;-77
2023/08/03 00:16:15;;;;;;;5.43;1.90;;;;;;;18.60;73.13;98552.41;678606;29;1364;-78
2023/08/03 00:16:36;;;;;;;4.60;2.00;;;;;;;18.54;72.78;98560.56;682712;29;1092;-77
2023/08/03 00:16:57;;;;;;;4.40;2.00;;;;;;;18.54;72.86;98557.94;684750;28;1103;-78
2023/08/03 00:17:17;;;;;;;4.60;2.00;;;;;;;18.48;72.81;98558.19;682488;28;1155;-77
2023/08/03 00:17:38;;;;;;;3.80;1.90;;;;;;;18.46;73.06;98562.66;682844;28;1065;-78
2023/08/03 00:17:59;;;;;;;4.13;1.90;;;;;;;18.36;73.01;98557.75;683981;28;1405;-78
2023/08/03 00:18:20;;;;;;;4.47;1.80;;;;;;;18.41;73.05;98559.34;684667;28;1476;-77
2023/08/03 00:18:40;;;;;;;4.93;1.90;;;;;;;18.31;73.12;98554.44;684812;28;993;-77
2023/08/03 00:19:01;;;;;;;4.53;1.90;;;;;;;18.27;73.25;98559.91;680866;28;1518;-77
2023/08/03 00:19:22;;;;;;;5.65;2.10;;;;;;;18.23;73.46;98561.78;679292;29;1242;-78
2023/08/03 00:19:42;;;;;;;6.57;1.95;;;;;;;18.17;73.36;98556.75;680083;29;1076;-77
2023/08/03 00:20:05;;;;;;;6.07;1.80;;;;;;;18.18;73.51;98553.19;680062;29;926;-78
2023/08/03 00:20:25;;;;;;;6.75;1.90;;;;;;;18.10;73.74;98556.09;682388;28;1927;-78
2023/08/03 00:20:47;;;;;;;6.45;1.90;;;;;;;18.07;74.00;98556.25;685265;28;1033;-77
2023/08/03 00:21:08;;;;;;;5.88;2.00;;;;;;;17.99;73.99;98547.72;682856;28;1310;-77
2023/08/03 00:21:29;;;;;;;5.40;2.00;;;;;;;18.03;74.21;98554.63;690370;28;1214;-78
2023/08/03 00:22:11;;;;;;;5.13;2.00;;;;;;;18.03;74.34;98568.69;682947;28;1033;-77
2023/08/03 00:22:33;;;;;;;4.97;2.00;;;;;;;17.96;74.50;98556.66;682480;29;1228;-77
2023/08/03 00:22:53;;;;;;;4.70;2.00;;;;;;;17.95;74.57;98552.28;682917;29;844;-77
2023/08/03 00:23:14;;;;;;;4.57;1.73;;;;;;;18.02;74.67;98555.53;683140;28;1337;-78
2023/08/03 00:23:35;;;;;;;3.83;1.60;;;;;;;17.88;74.89;98535.81;688979;28;1153;-78
2023/08/03 00:23:56;;;;;;;3.42;1.50;;;;;;;17.90;74.87;98546.31;691157;28;827;-78
2023/08/03 00:24:16;;;;;;;2.90;1.60;;;;;;;17.95;75.05;98542.59;688253;28;1206;-77
2023/08/03 00:24:37;;;;;;;4.40;1.90;;;;;;;17.92;74.87;98560.31;687924;28;1683;-77
2023/08/03 00:24:58;;;;;;;5.10;1.92;;;;;;;17.93;75.17;98575.22;682720;28;1120;-78
2023/08/03 00:25:19;;;;;;;5.10;2.08;;;;;;;17.92;75.04;98552.38;685335;28;2534;-78
2023/08/03 00:25:39;;;;;;;4.83;1.80;;;;;;;18.00;75.41;98562.66;681957;29;1144;-77
2023/08/03 00:26:00;;;;;;;4.40;1.97;;;;;;;17.93;74.90;98554.97;682769;28;1467;-77
2023/08/03 00:26:21;;;;;;;4.68;1.90;;;;;;;17.93;75.18;98541.78;682386;28;1057;-77
2023/08/03 00:26:42;;;;;;;4.13;1.98;;;;;;;17.93;75.11;98543.56;689230;28;1802;-77
2023/08/03 00:27:03;;;;;;;5.03;1.98;;;;;;;17.97;75.07;98539.91;693590;28;1235;-78
2023/08/03 00:27:24;;;;;;;5.90;2.15;;;;;;;18.01;75.11;98543.28;693994;28;1877;-77
2023/08/03 00:27:45;;;;;;;5.88;2.10;;;;;;;17.97;74.97;98533.75;690594;28;1023;-78
2023/08/03 00:28:05;;;;;;;4.55;2.10;;;;;;;17.96;75.03;98538.19;685572;28;1179;-77
2023/08/03 00:28:26;;;;;;;6.33;2.20;;;;;;;18.04;74.91;98538.75;681909;28;1103;-78
2023/08/03 00:28:47;;;;;;;6.00;2.10;;;;;;;18.05;74.94;98564.22;681292;29;1803;-76
2023/08/03 00:29:07;;;;;;;5.05;1.85;;;;;;;18.01;74.99;98536.19;683342;28;1115;-78
2023/08/03 00:29:40;;;;;;;4.30;1.70;;;;;;;18.07;74.86;98541.25;684809;28;1220;-78
2023/08/03 00:30:01;;;;;;;6.75;1.98;;;;;;;18.08;74.58;98553.53;682189;29;2348;-77
2023/08/03 00:30:22;;;;;;;6.60;2.20;;;;;;;18.12;74.90;98545.50;685101;28;1051;-77
2023/08/03 00:30:42;;;;;;;4.95;2.10;;;;;;;18.13;74.83;98560.41;682633;28;1073;-77
2023/08/03 00:31:03;;;;;;;4.38;2.10;;;;;;;18.15;74.70;98558.59;679783;28;1811;-77
2023/08/03 00:31:24;;;;;;;4.87;2.10;;;;;;;18.08;74.92;98568.50;682520;28;1105;-77
2023/08/03 00:31:45;;;;;;;6.93;2.13;;;;;;;18.05;74.82;98558.06;682756;28;1003;-77
2023/08/03 00:32:06;;;;;;;7.32;2.00;;;;;;;18.02;74.66;98535.28;682764;29;1189;-77
2023/08/03 00:32:27;;;;;;;6.85;2.05;;;;;;;18.00;74.81;98538.91;690240;28;1102;-77
2023/08/03 00:32:48;;;;;;;5.33;2.10;;;;;;;17.93;74.73;98533.88;685352;28;1221;-77
2023/08/03 00:33:09;;;;;;;5.90;2.50;;;;;;;17.95;75.01;98542.59;682722;29;1127;-78
2023/08/03 00:33:31;;;;;;;5.68;2.30;;;;;;;17.92;74.80;98550.63;682470;28;1377;-76
2023/08/03 00:33:51;;;;;;;4.45;2.20;;;;;;;17.90;74.90;98543.69;680748;29;1253;-77
2023/08/03 00:34:12;;;;;;;4.35;1.90;;;;;;;17.85;74.98;98522.75;687939;28;1830;-78
2023/08/03 00:34:33;;;;;;;4.75;2.00;;;;;;;17.89;75.09;98531.41;685110;28;1120;-77
2023/08/03 00:34:54;;;;;;;5.18;2.20;;;;;;;17.93;74.98;98544.44;688080;28;1235;-77
2023/08/03 00:35:16;;;;;;;4.70;2.20;;;;;;;17.83;75.10;98529.00;683557;28;1182;-77
2023/08/03 00:35:38;;;;;;;4.65;2.00;;;;;;;17.85;75.07;98550.91;682010;29;990;-77
2023/08/03 00:35:58;;;;;;;5.27;1.90;;;;;;;17.91;75.20;98548.91;682781;29;802;-79
2023/08/03 00:36:19;;;;;;;4.93;1.83;;;;;;;17.88;75.37;98537.59;688968;28;1671;-77
2023/08/03 00:36:40;;;;;;;4.38;2.00;;;;;;;17.82;75.40;98546.59;684763;28;1328;-77
2023/08/03 00:37:00;;;;;;;6.22;2.03;;;;;;;17.84;75.30;98550.06;685513;28;1141;-78
2023/08/03 00:37:21;;;;;;;7.80;2.30;;;;;;;17.79;75.39;98537.03;682564;28;1840;-77
2023/08/03 00:37:42;;;;;;;7.28;2.03;;;;;;;17.78;75.43;98545.84;684876;28;1192;-78
2023/08/03 00:38:03;;;;;;;6.22;2.10;;;;;;;17.75;75.58;98535.44;689255;28;1192;-78
2023/08/03 00:38:24;;;;;;;4.63;2.00;;;;;;;17.74;75.61;98535.47;684765;28;1590;-77
2023/08/03 00:38:44;;;;;;;4.15;1.92;;;;;;;17.77;75.66;98538.00;685337;28;978;-77
2023/08/03 00:39:05;;;;;;;2.73;1.80;;;;;;;17.73;75.94;98537.28;679777;29;1203;-78
2023/08/03 00:39:27;;;;;;;3.30;1.80;;;;;;;17.79;75.96;98538.81;685161;28;1009;-77
2023/08/03 00:39:48;;;;;;;4.50;2.00;;;;;;;17.75;75.80;98535.44;687761;28;1392;-76
2023/08/03 00:40:09;;;;;;;4.43;1.83;;;;;;;17.78;75.83;98553.75;685553;28;954;-77
2023/08/03 00:40:29;;;;;;;4.13;1.80;;;;;;;17.75;75.85;98539.81;687585;28;1981;-77
2023/08/03 00:40:51;;;;;;;3.42;1.80;;;;;;;17.80;75.74;98544.03;685099;28;1989;-78
2023/08/03 00:41:12;;;;;;;4.20;2.03;;;;;;;17.80;75.79;98533.50;688208;28;1814;-78
2023/08/03 00:41:33;;;;;;;3.93;2.00;;;;;;;17.83;75.70;98547.47;685163;28;1036;-78
2023/08/03 00:41:54;;;;;;;4.45;1.98;;;;;;;17.72;76.01;98543.47;685267;28;1870;-78
2023/08/03 00:42:14;;;;;;;4.43;2.00;;;;;;;17.75;76.08;98543.34;681076;28;1521;-78
2023/08/03 00:42:35;;;;;;;9.13;2.28;;;;;;;17.87;76.08;98557.84;681920;29;1126;-77
2023/08/03 00:42:56;;;;;;;8.80;2.30;;;;;;;17.85;75.77;98550.91;681266;29;1934;-77
2023/08/03 00:43:16;;;;;;;8.48;2.10;;;;;;;17.83;75.76;98550.09;681459;29;1229;-78
2023/08/03 00:43:46;;;;;;;3.80;1.70;;;;;;;17.83;75.76;98542.19;682793;29;1166;-77
2023/08/03 00:44:07;;;;;;;3.10;1.77;;;;;;;17.81;75.85;98523.78;682711;28;972;-77
2023/08/03 00:44:28;;;;;;;3.10;1.70;;;;;;;17.88;75.67;98542.88;687715;28;1150;-78
2023/08/03 00:44:48;;;;;;;2.88;1.60;;;;;;;17.80;75.66;98525.56;687812;28;1259;-78
2023/08/03 00:45:11;;;;;;;3.13;1.70;;;;;;;17.83;75.51;98542.19;690218;28;1431;-78
2023/08/03 00:45:31;;;;;;;4.03;2.10;;;;;;;17.81;75.66;98540.47;686775;28;1157;-77
2023/08/03 00:45:52;;;;;;;5.27;2.20;;;;;;;17.89;75.61;98536.69;682354;29;1066;-78
2023/08/03 00:46:13;;;;;;;5.88;2.25;;;;;;;17.91;75.53;98545.41;683310;28;1426;-78
2023/08/03 00:46:35;;;;;;;5.72;2.10;;;;;;;17.81;75.42;98540.47;682656;29;1049;-78
2023/08/03 00:46:56;;;;;;;4.70;2.10;;;;;;;17.81;75.41;98536.97;688045;28;1201;-78
2023/08/03 00:47:17;;;;;;;4.20;2.08;;;;;;;17.78;75.66;98537.94;684558;28;1410;-78
2023/08/03 00:47:39;;;;;;;3.63;2.00;;;;;;;17.81;75.65;98523.78;687080;28;997;-77
2023/08/03 00:47:59;;;;;;;3.85;1.90;;;;;;;17.79;75.59;98531.78;685465;28;1226;-77
2023/08/03 00:48:20;;;;;;;3.42;1.80;;;;;;;17.75;75.69;98530.16;682129;28;1489;-78
2023/08/03 00:48:41;;;;;;;3.78;1.90;;;;;;;17.76;75.63;98552.13;685302;28;1160;-77
2023/08/03 00:49:01;;;;;;;3.30;1.98;;;;;;;17.77;75.71;98541.50;682804;29;1164;-77
2023/08/03 00:49:27;;;;;;;3.70;2.33;;;;;;;17.73;75.69;98525.84;682129;28;1160;-78
2023/08/03 00:49:48;;;;;;;3.97;2.35;;;;;;;17.71;75.74;98527.69;679920;28;1241;-77
2023/08/03 00:50:09;;;;;;;5.18;2.72;;;;;;;17.72;75.68;98524.13;682932;29;966;-76
2023/08/03 00:50:30;;;;;;;5.47;2.47;;;;;;;17.72;75.66;98519.72;680862;29;1925;-77
2023/08/03 00:50:52;;;;;;;4.38;2.22;;;;;;;17.71;75.65;98527.69;681186;28;1051;-78
2023/08/03 00:51:13;;;;;;;3.42;1.80;;;;;;;17.75;75.81;98534.56;685915;28;1127;-78
2023/08/03 00:51:33;;;;;;;3.30;1.80;;;;;;;17.71;75.72;98544.38;688287;28;1995;-78
2023/08/03 00:51:55;;;;;;;3.97;1.90;;;;;;;17.73;75.90;98529.34;682708;29;890;-78
2023/08/03 00:52:16;;;;;;;5.65;2.10;;;;;;;17.75;75.98;98538.06;685008;28;1128;-80
2023/08/03 00:52:38;;;;;;;6.50;2.10;;;;;;;17.69;75.96;98530.38;682723;28;1502;-78
2023/08/03 00:52:58;;;;;;;6.40;2.30;;;;;;;17.65;75.88;98518.22;685552;28;802;-78
2023/08/03 00:53:19;;;;;;;6.57;2.45;;;;;;;17.73;76.03;98539.91;685118;28;1208;-78
2023/08/03 00:53:40;;;;;;;5.50;2.60;;;;;;;17.65;76.00;98512.97;688766;28;1468;-77
2023/08/03 00:54:00;;;;;;;5.25;2.40;;;;;;;17.67;76.08;98533.09;685466;28;800;-77
2023/08/03 00:54:21;;;;;;;3.80;2.00;;;;;;;17.64;76.04;98527.06;685290;28;1176;-77
2023/08/03 00:54:43;;;;;;;3.53;1.92;;;;;;;17.65;76.14;98528.78;685275;28;1061;-78
2023/08/03 00:55:04;;;;;;;3.97;1.90;;;;;;;17.66;76.04;98518.16;688050;28;1246;-77
2023/08/03 00:55:25;;;;;;;4.90;2.10;;;;;;;17.64;76.28;98521.78;679512;29;1201;-78
2023/08/03 00:55:45;;;;;;;5.27;2.20;;;;;;;17.61;76.28;98513.97;676702;29;1097;-77
2023/08/03 00:56:06;;;;;;;3.50;2.20;;;;;;;17.61;76.45;98521.88;680171;29;1296;-77
2023/08/03 00:56:27;;;;;;;3.90;2.00;;;;;;;17.64;76.37;98527.06;682328;28;1014;-78
2023/08/03 00:56:48;;;;;;;4.68;1.90;;;;;;;17.64;76.43;98521.78;679604;29;1457;-77
2023/08/03 00:57:08;;;;;;;4.95;1.90;;;;;;;17.61;76.34;98516.63;682778;29;1292;-78
2023/08/03 00:57:29;;;;;;;4.70;2.00;;;;;;;17.61;76.45;98533.31;687677;28;1121;-77
2023/08/03 00:57:50;;;;;;;4.30;2.00;;;;;;;17.64;76.50;98527.06;685954;28;1930;-78
2023/08/03 00:58:10;;;;;;;4.13;2.00;;;;;;;17.60;76.48;98517.53;683444;28;1047;-78
2023/08/03 00:58:31;;;;;;;4.23;1.93;;;;;;;17.58;76.50;98519.38;677217;29;1185;-78
2023/08/03 00:58:52;;;;;;;4.32;1.90;;;;;;;17.67;76.20;98537.50;680173;29;802;-77
2023/08/03 00:59:13;;;;;;;4.22;1.98;;;;;;;17.62;76.48;98528.88;680362;28;1250;-77
2023/08/03 00:59:34;;;;;;;5.78;2.10;;;;;;;17.59;76.54;98516.69;684403;28;1110;-77
2023/08/03 00:59:55;;;;;;;8.10;2.20;;;;;;;17.67;76.51;98540.13;690665;28;1293;-78
2023/08/03 01:00:16;;;;;;;8.45;2.30;;;;;;;17.60;76.68;98536.88;687086;28;1888;-77
2023/08/03 01:00:36;;;;;;;5.35;2.20;;;;;;;17.63;76.39;98526.19;682297;28;1105;-76
2023/08/03 01:00:57;;;;;;;3.93;2.30;;;;;;;17.62;76.77;98520.97;682781;29;820;-78
2023/08/03 01:01:20;;;;;;;4.20;2.30;;;;;;;17.63;76.57;98526.19;685188;28;1622;-78
2023/08/03 01:01:41;;;;;;;5.47;2.25;;;;;;;17.62;76.52;98523.59;685151;28;1110;-78
2023/08/03 01:02:03;;;;;;;6.13;2.20;;;;;;;17.59;76.59;98500.88;682652;28;1216;-78
2023/08/03 01:02:24;;;;;;;5.40;2.00;;;;;;;17.68;76.58;98518.97;682107;28;1481;-77
2023/08/03 01:02:44;;;;;;;3.78;1.90;;;;;;;17.63;76.51;98527.97;679230;29;1270;-77
2023/08/03 01:03:05;;;;;;;3.60;1.90;;;;;;;17.63;76.49;98518.28;679979;29;1092;-77
2023/08/03 01:03:26;;;;;;;4.00;2.00;;;;;;;17.65;76.44;98534.06;681025;29;1124;-77
2023/08/03 01:03:47;;;;;;;7.60;2.00;;;;;;;17.62;76.55;98513.94;685147;28;1198;-77
2023/08/03 01:04:08;;;;;;;6.68;1.80;;;;;;;17.61;76.38;98516.63;688136;28;1231;-78
2023/08/03 01:04:29;;;;;;;7.22;1.77;;;;;;;17.64;76.46;98540.25;679289;28;1604;-77
2023/08/03 01:04:49;;;;;;;3.70;1.73;;;;;;;17.59;76.45;98524.59;679970;29;1279;-76
2023/08/03 01:05:10;;;;;;;4.10;1.88;;;;;;;17.60;76.51;98517.53;682872;28;1103;-78
2023/08/03 01:05:32;;;;;;;3.65;1.80;;;;;;;17.61;76.33;98516.63;684821;28;1986;-77
2023/08/03 01:05:53;;;;;;;3.60;2.20;;;;;;;17.62;76.63;98534.16;685145;28;1363;-77
2023/08/03 01:06:14;;;;;;;3.30;2.17;;;;;;;17.62;76.59;98519.19;680566;28;1201;-77
2023/08/03 01:06:35;;;;;;;3.23;2.20;;;;;;;17.59;76.63;98510.53;684919;28;1144;-78
2023/08/03 01:06:56;;;;;;;3.67;1.77;;;;;;;17.59;76.52;98521.09;685476;28;987;-77
2023/08/03 01:07:17;;;;;;;2.95;1.60;;;;;;;17.56;76.51;98521.22;685917;28;1439;-77
2023/08/03 01:07:38;;;;;;;5.18;1.83;;;;;;;17.63;76.42;98527.97;684880;28;1895;-77
2023/08/03 01:07:58;;;;;;;5.13;1.95;;;;;;;17.61;76.51;98537.72;680127;29;843;-78
2023/08/03 01:08:19;;;;;;;5.77;2.03;;;;;;;17.58;76.38;98519.38;685058;28;1205;-77
2023/08/03 01:08:40;;;;;;;3.85;1.90;;;;;;;17.58;76.34;98532.56;685304;28;1166;-77
2023/08/03 01:09:00;;;;;;;3.55;1.83;;;;;;;17.53;76.41;98523.03;682196;29;1711;-77
2023/08/03 01:09:21;;;;;;;3.70;1.90;;;;;;;17.59;76.46;98515.81;681198;29;1038;-78
2023/08/03 01:09:42;;;;;;;3.60;1.90;;;;;;;17.60;76.37;98538.63;682003;28;1764;-78
2023/08/03 01:10:03;;;;;;;3.65;1.83;;;;;;;17.57;76.45;98525.56;680949;28;1595;-77
2023/08/03 01:10:25;;;;;;;3.88;2.00;;;;;;;17.51;76.47;98531.91;678831;29;1151;-78
2023/08/03 01:10:46;;;;;;;5.60;2.20;;;;;;;17.61;76.41;98569.34;679937;29;1646;-77
2023/08/03 01:11:07;;;;;;;6.20;2.38;;;;;;;17.49;76.46;98531.13;682682;28;1111;-79
2023/08/03 01:11:29;;;;;;;6.35;2.28;;;;;;;17.47;76.42;98530.31;682033;29;1380;-77
2023/08/03 01:11:49;;;;;;;5.43;2.20;;;;;;;17.52;76.62;98529.22;682552;29;1092;-76
2023/08/03 01:12:10;;;;;;;3.47;2.00;;;;;;;17.59;76.37;98552.75;684892;28;1170;-77
2023/08/03 01:12:31;;;;;;;4.40;2.20;;;;;;;17.46;76.46;98518.06;687787;28;1148;-77
2023/08/03 01:12:52;;;;;;;4.90;2.10;;;;;;;17.51;76.28;98524.88;688005;28;808;-78
2023/08/03 01:13:13;;;;;;;4.87;2.00;;;;;;;17.47;76.45;98527.69;687783;28;2024;-78
2023/08/03 01:13:33;;;;;;;4.40;2.00;;;;;;;17.54;76.63;98566.94;680238;28;1186;-77
2023/08/03 01:13:55;;;;;;;4.00;2.10;;;;;;;17.43;76.55;98542.75;680556;29;796;-78
2023/08/03 01:14:16;;;;;;;4.68;2.10;;;;;;;17.53;76.57;98556.47;680136;28;1160;-79
2023/08/03 01:14:37;;;;;;;4.80;2.03;;;;;;;17.53;76.56;98544.13;679883;28;1205;-78
2023/08/03 01:14:57;;;;;;;5.20;2.10;;;;;;;17.52;76.42;98539.78;682631;29;1109;-79
2023/08/03 01:15:18;;;;;;;6.00;2.10;;;;;;;17.45;76.65;98535.63;680466;29;1387;-78
2023/08/03 01:15:39;;;;;;;6.18;2.30;;;;;;;17.45;76.54;98534.78;681664;29;1377;-78
2023/08/03 01:16:00;;;;;;;5.03;2.30;;;;;;;17.46;76.46;98545.25;682683;29;866;-78
2023/08/03 01:16:22;;;;;;;4.70;2.40;;;;;;;17.40;76.43;98524.41;680093;29;1174;-78
2023/08/03 01:16:43;;;;;;;3.75;2.25;;;;;;;17.42;76.60;98532.25;683938;28;1026;-77
2023/08/03 01:17:06;;;;;;;3.90;2.25;;;;;;;17.44;76.49;98533.91;686060;28;1121;-77
2023/08/03 01:17:26;;;;;;;3.95;2.13;;;;;;;17.48;76.44;98530.28;683416;28;1871;-79
2023/08/03 01:17:47;;;;;;;3.97;2.22;;;;;;;17.43;76.57;98531.31;686341;28;1184;-77
2023/08/03 01:18:07;;;;;;;3.97;2.35;;;;;;;17.39;76.46;98518.28;682679;29;964;-78
2023/08/03 01:18:28;;;;;;;4.20;2.20;;;;;;;17.45;76.45;98537.44;681858;28;1319;-78
2023/08/03 01:18:49;;;;;;;4.50;2.10;;;;;;;17.43;76.50;98533.97;680082;29;1062;-78
2023/08/03 01:19:12;;;;;;;4.45;1.92;;;;;;;17.42;76.85;98541.03;685110;28;1185;-78
2023/08/03 01:19:33;;;;;;;4.30;2.17;;;;;;;17.42;76.78;98540.16;682163;29;1948;-78
2023/08/03 01:19:54;;;;;;;4.28;2.30;;;;;;;17.38;76.74;98531.50;677465;29;801;-78
2023/08/03 01:20:18;;;;;;;3.63;2.20;;;;;;;17.46;76.77;98539.97;679592;29;1289;-78
2023/08/03 01:20:41;;;;;;;3.30;2.05;;;;;;;17.46;76.90;98547.91;686220;28;1043;-78
2023/08/03 01:21:05;;;;;;;3.38;2.20;;;;;;;17.44;76.62;98541.81;687881;28;1081;-77
2023/08/03 01:21:27;;;;;;;3.00;2.20;;;;;;;17.39;76.80;98533.22;687682;28;1119;-79
2023/08/03 01:21:49;;;;;;;3.03;2.20;;;;;;;17.38;76.72;98537.66;677234;28;1262;-77
2023/08/03 01:22:12;;;;;;;5.35;2.22;;;;;;;17.42;76.93;98538.41;682556;28;1257;-79
2023/08/03 01:22:43;;;;;;;5.80;2.10;;;;;;;17.44;76.96;98536.56;679804;29;1132;-78
2023/08/03 01:23:05;;;;;;;6.45;2.10;;;;;;;17.43;77.09;98542.75;680489;28;1130;-78
2023/08/03 01:23:26;;;;;;;6.45;2.30;;;;;;;17.45;77.03;98551.44;682810;28;1155;-78
2023/08/03 01:23:48;;;;;;;6.00;2.50;;;;;;;17.47;76.83;98547.00;684769;28;1806;-79
2023/08/03 01:24:08;;;;;;;5.10;2.50;;;;;;;17.48;76.95;98553.13;685464;28;1166;-80
2023/08/03 01:24:29;;;;;;;4.15;2.33;;;;;;;17.40;76.95;98535.81;684914;28;1147;-79
2023/08/03 01:24:50;;;;;;;4.10;2.20;;;;;;;17.42;76.91;98533.13;679960;29;1187;-78
2023/08/03 01:25:11;;;;;;;4.37;2.10;;;;;;;17.42;76.72;98537.53;679800;29;1175;-78
2023/08/03 01:25:32;;;;;;;4.88;2.00;;;;;;;17.40;77.03;98545.50;676851;29;1119;-77
2023/08/03 01:25:53;;;;;;;5.55;2.17;;;;;;;17.45;77.15;98543.53;677246;29;1234;-78
2023/08/03 01:26:14;;;;;;;4.25;2.10;;;;;;;17.39;76.84;98538.47;677194;29;1218;-79
2023/08/03 01:26:35;;;;;;;3.83;1.95;;;;;;;17.36;77.06;98541.25;677231;29;1160;-78
2023/08/03 01:27:01;;;;;;;4.80;2.00;;;;;;;17.47;77.10;98556.69;682628;29;1448;-78
2023/08/03 01:27:22;;;;;;;7.20;2.10;;;;;;;17.37;77.05;98540.31;683965;28;1341;-78
2023/08/03 01:27:47;;;;;;;6.68;2.25;;;;;;;17.39;77.07;98539.34;685199;28;1118;-77
2023/08/03 01:28:07;;;;;;;6.10;2.20;;;;;;;17.33;77.36;98560.66;682532;29;960;-77
2023/08/03 01:28:28;;;;;;;6.40;2.40;;;;;;;17.45;77.08;98567.28;683158;28;1146;-78
2023/08/03 01:28:49;;;;;;;5.80;2.42;;;;;;;17.37;76.96;98566.69;677299;29;1477;-77
2023/08/03 01:29:11;;;;;;;6.47;2.50;;;;;;;17.45;76.99;98553.25;685200;28;1122;-77
2023/08/03 01:29:32;;;;;;;5.85;2.40;;;;;;;17.35;77.07;98534.25;682179;29;1340;-79
2023/08/03 01:29:53;;;;;;;5.50;2.40;;;;;;;17.33;77.23;98539.56;686167;28;917;-79
2023/08/03 01:30:13;;;;;;;4.78;2.20;;;;;;;17.37;77.23;98558.78;689834;28;1093;-77
2023/08/03 01:30:34;;;;;;;4.37;2.20;;;;;;;17.39;77.43;98549.03;681978;29;1504;-78
2023/08/03 01:30:57;;;;;;;5.72;2.30;;;;;;;17.40;77.40;98556.06;682958;28;1367;-78
2023/08/03 01:31:19;;;;;;;5.53;2.25;;;;;;;17.36;77.33;98551.78;685211;28;1234;-78
2023/08/03 01:31:40;;;;;;;4.88;2.15;;;;;;;17.43;77.21;98571.75;685058;28;1012;-78
2023/08/03 01:32:01;;;;;;;3.92;2.10;;;;;;;17.39;77.30;98554.31;684912;28;1112;-77
2023/08/03 01:32:22;;;;;;;4.60;2.30;;;;;;;17.43;77.17;98555.94;680002;28;1401;-79
2023/08/03 01:32:43;;;;;;;3.60;2.10;;;;;;;17.37;77.26;98540.31;682558;29;1612;-79
2023/08/03 01:33:04;;;;;;;3.90;2.00;;;;;;;17.43;77.22;98553.28;680376;28;1378;-77
2023/08/03 01:33:24;;;;;;;3.70;2.00;;;;;;;17.40;77.40;98561.31;684484;28;1224;-77
2023/08/03 01:33:45;;;;;;;5.65;2.20;;;;;;;17.41;77.24;98557.78;682206;29;2016;-79
2023/08/03 01:34:15;;;;;;;6.50;2.30;;;;;;;17.38;77.20;98553.47;677448;29;1189;-78
2023/08/03 01:34:36;;;;;;;6.00;2.20;;;;;;;17.39;77.25;98562.22;687397;28;1550;-77
2023/08/03 01:34:57;;;;;;;5.40;2.30;;;;;;;17.38;77.38;98555.22;685218;28;1368;-77
2023/08/03 01:35:18;;;;;;;5.03;2.20;;;;;;;17.38;77.63;98552.59;685600;28;1313;-78
2023/08/03 01:35:39;;;;;;;4.63;2.20;;;;;;;17.46;77.60;98569.00;684363;28;1272;-78
2023/08/03 01:35:59;;;;;;;3.07;2.10;;;;;;;17.36;77.44;98555.28;682455;29;2277;-77
2023/08/03 01:36:20;;;;;;;3.70;2.10;;;;;;;17.40;77.65;98550.78;684217;28;1135;-78
2023/08/03 01:36:41;;;;;;;4.40;2.10;;;;;;;17.40;77.64;98545.50;690476;28;1198;-78
2023/08/03 01:37:01;;;;;;;5.10;2.10;;;;;;;17.42;77.54;98543.66;688633;28;966;-79
2023/08/03 01:37:24;;;;;;;4.90;2.20;;;;;;;17.47;77.31;98557.56;682278;28;1068;-79
2023/08/03 01:37:44;;;;;;;5.28;2.30;;;;;;;17.46;77.47;98544.41;682520;28;1242;-77
2023/08/03 01:38:05;;;;;;;4.82;2.30;;;;;;;17.40;77.38;98530.53;684944;28;1394;-77
2023/08/03 01:38:26;;;;;;;4.70;2.28;;;;;;;17.41;77.35;98552.50;687077;28;1167;-77
2023/08/03 01:38:54;;;;;;;7.10;2.50;;;;;;;17.40;77.53;98540.22;687776;28;1072;-77
2023/08/03 01:39:15;;;;;;;7.72;2.60;;;;;;;17.49;77.68;98563.63;687585;28;1245;-78
2023/08/03 01:39:36;;;;;;;7.80;2.58;;;;;;;17.47;77.62;98546.13;684903;28;1120;-78
2023/08/03 01:39:56;;;;;;;5.45;2.08;;;;;;;17.41;77.71;98549.84;685582;28;1165;-78
2023/08/03 01:40:18;;;;;;;4.37;1.80;;;;;;;17.46;77.60;98550.53;682121;29;1914;-77
2023/08/03 01:40:41;;;;;;;4.05;1.90;;;;;;;17.48;77.55;98548.72;687824;28;1329;-78
2023/08/03 01:41:01;;;;;;;4.40;1.90;;;;;;;17.53;77.53;98556.47;687945;28;1044;-79
2023/08/03 01:41:22;;;;;;;4.40;2.03;;;;;;;17.56;77.53;98564.25;690100;28;1979;-78
2023/08/03 01:41:43;;;;;;;3.70;2.00;;;;;;;17.48;77.44;98548.72;687945;28;1082;-78
2023/08/03 01:42:04;;;;;;;3.75;2.00;;;;;;;17.53;77.58;98554.66;680031;29;1282;-79
2023/08/03 01:42:25;;;;;;;3.30;2.00;;;;;;;17.49;77.50;98553.06;680086;29;2015;-76
2023/08/03 01:42:46;;;;;;;4.15;2.03;;;;;;;17.48;77.58;98553.13;682842;28;1103;-78